createdAt,value
2023-06-16T00:00:39.550Z,4.30
2023-06-16T00:03:06.626Z,3.97
2023-06-16T00:05:36.029Z,4.00
2023-06-16T00:08:04.937Z,4.28
2023-06-16T00:10:31.862Z,4.57
2023-06-16T00:12:58.772Z,4.72
2023-06-16T00:15:26.006Z,4.25
2023-06-16T00:17:53.707Z,4.75
2023-06-16T00:20:25.400Z,4.38
2023-06-16T00:22:52.238Z,4.65
2023-06-16T00:25:19.718Z,4.20
2023-06-16T00:27:46.904Z,4.10
2023-06-16T00:30:14.726Z,4.25
2023-06-16T00:32:41.537Z,4.60
2023-06-16T00:35:08.738Z,4.90
2023-06-16T00:37:35.559Z,4.22
2023-06-16T00:40:02.218Z,4.38
2023-06-16T00:42:28.933Z,4.55
2023-06-16T00:44:55.725Z,4.90
2023-06-16T00:47:22.689Z,4.90
2023-06-16T00:49:49.501Z,5.07
2023-06-16T00:52:17.183Z,5.15
2023-06-16T00:54:44.460Z,5.45
2023-06-16T00:57:11.108Z,4.95
2023-06-16T00:59:38.386Z,5.95
2023-06-16T01:02:05.636Z,5.35
2023-06-16T01:04:33.104Z,5.18
2023-06-16T01:07:29.935Z,5.30
2023-06-16T01:10:22.449Z,4.80
2023-06-16T01:13:26.818Z,5.15
2023-06-16T01:15:54.448Z,5.53
2023-06-16T01:18:24.166Z,4.80
2023-06-16T01:21:22.695Z,5.13
2023-06-16T01:24:10.547Z,5.38
2023-06-16T01:26:41.425Z,5.38
2023-06-16T01:29:12.172Z,5.30
2023-06-16T01:31:41.295Z,5.55
2023-06-16T01:34:09.405Z,6.05
2023-06-16T01:36:38.543Z,5.88
2023-06-16T01:39:07.963Z,6.28
2023-06-16T01:41:36.790Z,5.90
2023-06-16T01:44:04.009Z,6.10
2023-06-16T01:46:32.044Z,7.43
2023-06-16T01:48:59.902Z,6.65
2023-06-16T01:51:26.752Z,7.47
2023-06-16T01:53:54.257Z,6.97
2023-06-16T01:56:21.181Z,7.43
2023-06-16T01:58:48.331Z,7.50
2023-06-16T02:01:38.296Z,7.07
2023-06-16T02:04:13.139Z,7.30
2023-06-16T02:06:53.174Z,7.70
2023-06-16T02:09:23.967Z,7.07
2023-06-16T02:11:53.148Z,7.50
2023-06-16T02:14:20.100Z,7.88
2023-06-16T02:16:46.907Z,7.43
2023-06-16T02:19:13.771Z,7.65
2023-06-16T02:21:43.671Z,6.97
2023-06-16T02:24:11.250Z,7.18
2023-06-16T02:26:38.768Z,7.70
2023-06-16T02:29:05.797Z,8.00
2023-06-16T02:31:32.723Z,7.78
2023-06-16T02:33:59.665Z,7.97
2023-06-16T02:36:26.805Z,7.78
2023-06-16T02:38:53.595Z,8.40
2023-06-16T02:41:20.437Z,7.93
2023-06-16T02:43:47.186Z,7.57
2023-06-16T02:46:13.915Z,8.38
2023-06-16T02:48:40.839Z,7.60
2023-06-16T02:51:07.617Z,7.25
2023-06-16T02:53:34.944Z,8.05
2023-06-16T02:56:01.804Z,7.63
2023-06-16T02:58:28.599Z,7.88
2023-06-16T03:00:55.304Z,8.02
2023-06-16T03:03:22.857Z,7.38
2023-06-16T03:05:49.740Z,8.02
2023-06-16T03:08:16.954Z,7.53
2023-06-16T03:10:43.959Z,7.85
2023-06-16T03:13:10.981Z,8.05
2023-06-16T03:15:37.671Z,8.02
2023-06-16T03:18:04.636Z,7.45
2023-06-16T03:20:31.402Z,7.82
2023-06-16T03:22:58.006Z,8.00
2023-06-16T03:25:24.778Z,7.57
2023-06-16T03:27:51.673Z,7.53
2023-06-16T03:30:18.682Z,7.70
2023-06-16T03:32:47.061Z,7.95
2023-06-16T03:35:14.211Z,7.63
2023-06-16T03:37:41.006Z,8.73
2023-06-16T03:40:08.790Z,8.23
2023-06-16T03:42:36.442Z,8.57
2023-06-16T03:45:04.857Z,9.15
2023-06-16T03:47:31.740Z,8.88
2023-06-16T03:49:59.473Z,9.52
2023-06-16T03:52:26.895Z,9.50
2023-06-16T03:54:53.607Z,9.27
2023-06-16T03:57:20.541Z,9.52
2023-06-16T03:59:47.249Z,9.68
2023-06-16T04:02:14.095Z,10.30
2023-06-16T04:04:44.257Z,9.95
2023-06-16T04:07:12.907Z,10.02
2023-06-16T04:09:39.972Z,9.50
2023-06-16T04:12:07.572Z,10.32
2023-06-16T04:14:34.256Z,9.88
2023-06-16T04:17:01.020Z,9.65
2023-06-16T04:19:27.878Z,9.15
2023-06-16T04:21:54.631Z,9.65
2023-06-16T04:24:21.423Z,9.45
2023-06-16T04:26:49.693Z,8.90
2023-06-16T04:29:16.595Z,9.63
2023-06-16T04:31:43.897Z,9.85
2023-06-16T04:34:13.948Z,9.18
2023-06-16T04:36:42.857Z,9.23
2023-06-16T04:39:09.858Z,9.00
2023-06-16T04:41:36.639Z,9.43
2023-06-16T04:44:07.979Z,9.93
2023-06-16T04:46:34.908Z,9.43
2023-06-16T04:49:01.856Z,9.93
2023-06-16T04:51:29.419Z,10.93
2023-06-16T04:53:56.369Z,9.38
2023-06-16T04:56:23.126Z,10.57
2023-06-16T04:58:49.730Z,9.73
2023-06-16T05:01:16.452Z,9.65
2023-06-16T05:03:43.475Z,10.13
2023-06-16T05:06:11.695Z,11.80
2023-06-16T05:08:38.569Z,12.63
2023-06-16T05:11:05.443Z,11.80
2023-06-16T05:13:32.122Z,12.23
2023-06-16T05:15:58.824Z,12.32
2023-06-16T05:18:25.847Z,12.05
2023-06-16T05:20:52.572Z,13.40
2023-06-16T05:23:19.353Z,13.45
2023-06-16T05:25:46.579Z,12.88
2023-06-16T05:28:13.205Z,12.68
2023-06-16T05:30:40.068Z,12.85
2023-06-16T05:33:07.104Z,11.57
2023-06-16T05:35:33.993Z,11.55
2023-06-16T05:38:00.675Z,12.50
2023-06-16T05:40:27.428Z,10.75
2023-06-16T05:42:54.062Z,11.27
2023-06-16T05:45:21.128Z,10.35
2023-06-16T05:47:48.050Z,10.60
2023-06-16T05:50:14.723Z,9.98
2023-06-16T05:52:41.680Z,9.95
2023-06-16T05:55:09.024Z,9.77
2023-06-16T05:57:37.805Z,9.45
2023-06-16T06:00:06.888Z,8.57
2023-06-16T06:02:33.620Z,9.57
2023-06-16T06:05:00.431Z,9.23
2023-06-16T06:07:27.179Z,8.88
2023-06-16T06:09:54.017Z,9.13
2023-06-16T06:12:21.538Z,8.50
2023-06-16T06:14:48.265Z,9.10
2023-06-16T06:17:15.064Z,9.02
2023-06-16T06:19:41.713Z,8.55
2023-06-16T06:22:08.400Z,8.02
2023-06-16T06:24:35.190Z,7.70
2023-06-16T06:27:01.797Z,9.32
2023-06-16T06:29:28.562Z,8.48
2023-06-16T06:31:55.205Z,8.40
2023-06-16T06:34:21.947Z,7.53
2023-06-16T06:36:49.064Z,7.03
2023-06-16T06:39:16.169Z,7.38
2023-06-16T06:41:42.853Z,6.85
2023-06-16T06:44:10.294Z,6.40
2023-06-16T06:46:37.130Z,6.10
2023-06-16T06:49:03.843Z,6.10
2023-06-16T06:51:30.641Z,5.13
2023-06-16T06:53:57.582Z,5.68
2023-06-16T06:56:24.205Z,5.53
2023-06-16T06:58:51.009Z,5.22
2023-06-16T07:01:17.801Z,4.95
2023-06-16T07:03:44.565Z,5.25
2023-06-16T07:06:11.754Z,5.22
2023-06-16T07:08:38.707Z,5.43
2023-06-16T07:11:05.423Z,5.20
2023-06-16T07:13:32.240Z,5.30
2023-06-16T07:16:00.182Z,4.78
2023-06-16T07:18:26.899Z,5.25
2023-06-16T07:20:53.941Z,5.68
2023-06-16T07:23:20.588Z,5.35
2023-06-16T07:25:47.321Z,4.85
2023-06-16T07:28:14.119Z,5.55
2023-06-16T07:30:41.103Z,5.13
2023-06-16T07:33:08.050Z,5.30
2023-06-16T07:35:34.785Z,5.70
2023-06-16T07:38:02.762Z,6.25
2023-06-16T07:40:29.412Z,5.70
2023-06-16T07:42:56.209Z,5.43
2023-06-16T07:45:23.961Z,5.80
2023-06-16T07:47:50.941Z,5.68
2023-06-16T07:50:18.092Z,5.38
2023-06-16T07:52:45.183Z,6.63
2023-06-16T07:55:12.233Z,5.57
2023-06-16T07:57:41.922Z,5.20
2023-06-16T08:00:12.590Z,5.25
2023-06-16T08:02:43.193Z,5.38
2023-06-16T08:05:12.269Z,5.93
2023-06-16T08:07:39.970Z,5.28
2023-06-16T08:10:07.198Z,6.35
2023-06-16T08:12:33.994Z,5.88
2023-06-16T08:15:01.127Z,5.22
2023-06-16T08:17:28.004Z,5.53
2023-06-16T08:19:54.956Z,5.00
2023-06-16T08:22:22.157Z,4.25
2023-06-16T08:24:49.027Z,4.13
2023-06-16T08:27:15.958Z,4.45
2023-06-16T08:29:42.795Z,4.22
2023-06-16T08:32:09.628Z,4.53
2023-06-16T08:34:37.599Z,4.80
2023-06-16T08:37:13.917Z,3.70
2023-06-16T08:39:47.491Z,4.10
2023-06-16T08:42:14.883Z,3.80
2023-06-16T08:44:41.579Z,3.40
2023-06-16T08:47:09.374Z,3.78
2023-06-16T08:49:36.317Z,3.05
2023-06-16T08:52:04.362Z,2.85
2023-06-16T08:54:38.502Z,2.80
2023-06-16T08:57:10.625Z,3.47
2023-06-16T08:59:38.812Z,3.38
2023-06-16T09:02:07.024Z,2.97
2023-06-16T09:04:35.037Z,2.88
2023-06-16T09:07:01.902Z,3.00
2023-06-16T09:09:29.837Z,2.70
2023-06-16T09:12:07.120Z,3.08
2023-06-16T09:14:34.746Z,3.10
2023-06-16T09:17:05.479Z,2.70
2023-06-16T09:19:35.556Z,3.00
2023-06-16T09:22:03.691Z,3.15
2023-06-16T09:24:30.984Z,2.67
2023-06-16T09:27:01.091Z,2.55
2023-06-16T09:29:29.247Z,2.70
2023-06-16T09:32:09.523Z,2.70
2023-06-16T09:34:36.734Z,2.72
2023-06-16T09:37:06.714Z,2.50
2023-06-16T09:39:33.509Z,2.28
2023-06-16T09:42:02.459Z,2.75
2023-06-16T09:44:31.367Z,2.67
2023-06-16T09:47:02.063Z,2.50
2023-06-16T09:49:28.956Z,2.72
2023-06-16T09:51:58.144Z,2.70
2023-06-16T09:54:26.942Z,2.70
2023-06-16T09:56:57.537Z,2.80
2023-06-16T09:59:27.040Z,2.80
2023-06-16T10:01:56.534Z,2.90
2023-06-16T10:04:24.816Z,2.65
2023-06-16T10:06:56.090Z,2.75
2023-06-16T10:09:28.935Z,3.00
2023-06-16T10:11:58.910Z,3.00
2023-06-16T10:14:34.804Z,2.70
2023-06-16T10:17:01.832Z,2.72
2023-06-16T10:19:36.644Z,2.78
2023-06-16T10:22:04.849Z,2.70
2023-06-16T10:24:32.151Z,2.45
2023-06-16T10:27:00.720Z,2.65
2023-06-16T10:29:30.110Z,2.60
2023-06-16T10:32:07.886Z,2.60
2023-06-16T10:34:52.573Z,2.92
2023-06-16T10:37:23.107Z,3.00
2023-06-16T10:39:49.890Z,3.50
2023-06-16T10:42:17.358Z,2.92
2023-06-16T10:44:44.908Z,2.60
2023-06-16T10:47:11.763Z,2.85
2023-06-16T10:50:00.899Z,2.90
2023-06-16T10:52:34.061Z,2.63
2023-06-16T10:55:43.688Z,2.58
2023-06-16T10:58:16.681Z,3.23
2023-06-16T11:01:07.159Z,2.60
2023-06-16T11:03:44.347Z,2.88
2023-06-16T11:06:12.253Z,2.75
2023-06-16T11:08:59.935Z,2.80
2023-06-16T11:11:34.416Z,2.75
2023-06-16T11:14:02.240Z,2.90
2023-06-16T11:16:29.716Z,2.72
2023-06-16T11:18:58.710Z,2.58
2023-06-16T11:21:26.877Z,3.03
2023-06-16T11:23:54.143Z,2.90
2023-06-16T11:26:23.688Z,2.63
2023-06-16T11:28:52.597Z,2.60
2023-06-16T11:31:20.591Z,2.70
2023-06-16T11:33:48.274Z,2.60
2023-06-16T11:36:21.188Z,2.67
2023-06-16T11:38:51.078Z,2.90
2023-06-16T11:41:22.581Z,2.50
2023-06-16T11:43:52.435Z,2.72
2023-06-16T11:46:31.158Z,2.50
2023-06-16T11:48:59.427Z,3.03
2023-06-16T11:51:28.252Z,2.55
2023-06-16T11:53:55.409Z,2.58
2023-06-16T11:56:26.441Z,2.90
2023-06-16T11:58:54.321Z,2.58
2023-06-16T12:01:22.843Z,2.72
2023-06-16T12:06:20.869Z,2.70
2023-06-16T12:08:49.894Z,2.95
2023-06-16T12:11:29.160Z,2.05
2023-06-16T12:13:58.259Z,2.60
2023-06-16T12:16:26.486Z,2.72
2023-06-16T12:18:53.842Z,2.70
2023-06-16T12:21:21.913Z,2.30
2023-06-16T12:23:58.722Z,2.53
2023-06-16T12:26:36.488Z,2.55
2023-06-16T12:29:10.694Z,2.50
2023-06-16T12:31:38.060Z,2.53
2023-06-16T12:34:04.763Z,2.20
2023-06-16T12:36:31.479Z,2.47
2023-06-16T12:39:00.160Z,2.60
2023-06-16T12:41:28.187Z,2.67
2023-06-16T12:43:54.945Z,2.67
2023-06-16T12:46:22.036Z,2.63
2023-06-16T12:48:48.963Z,2.45
2023-06-16T12:51:18.876Z,2.63
2023-06-16T12:56:15.886Z,2.38
2023-06-16T12:58:43.267Z,2.67
2023-06-16T13:01:13.090Z,2.70
2023-06-16T13:03:42.408Z,2.40
2023-06-16T13:06:09.344Z,2.63
2023-06-16T13:08:36.093Z,2.70
2023-06-16T13:11:02.933Z,2.42
2023-06-16T13:13:29.838Z,2.53
2023-06-16T13:15:56.523Z,2.40
2023-06-16T13:18:23.259Z,2.50
2023-06-16T13:20:52.144Z,2.50
2023-06-16T13:23:19.183Z,2.40
2023-06-16T13:25:46.009Z,2.60
2023-06-16T13:28:12.945Z,2.80
2023-06-16T13:30:39.666Z,2.47
2023-06-16T13:33:06.531Z,2.38
2023-06-16T13:35:33.420Z,2.40
2023-06-16T13:38:00.256Z,2.95
2023-06-16T13:40:27.147Z,2.30
2023-06-16T13:42:54.005Z,2.70
2023-06-16T13:45:20.669Z,3.78
2023-06-16T13:47:47.860Z,2.65
2023-06-16T13:50:14.731Z,2.40
2023-06-16T13:52:41.417Z,2.35
2023-06-16T13:55:08.420Z,2.65
2023-06-16T13:57:35.472Z,2.50
2023-06-16T14:00:03.006Z,2.50
2023-06-16T14:02:30.891Z,2.70
2023-06-16T14:04:58.147Z,2.70
2023-06-16T14:07:24.803Z,2.60
2023-06-16T14:09:51.536Z,2.50
2023-06-16T14:12:18.547Z,2.60
2023-06-16T14:14:46.398Z,2.25
2023-06-16T14:17:13.869Z,2.50
2023-06-16T14:19:41.207Z,2.50
2023-06-16T14:22:07.912Z,2.80
2023-06-16T14:24:34.653Z,2.70
2023-06-16T14:27:01.434Z,2.83
2023-06-16T14:29:28.113Z,2.63
2023-06-16T14:31:54.771Z,2.42
2023-06-16T14:34:21.753Z,2.97
2023-06-16T14:36:48.699Z,2.35
2023-06-16T14:39:15.420Z,2.85
2023-06-16T14:41:42.399Z,2.80
2023-06-16T14:44:09.076Z,2.70
2023-06-16T14:46:35.961Z,2.92
2023-06-16T14:49:02.849Z,2.33
2023-06-16T14:51:31.055Z,2.50
2023-06-16T14:53:57.879Z,2.33
2023-06-16T14:56:24.822Z,3.17
2023-06-16T14:58:51.422Z,2.55
2023-06-16T15:01:18.095Z,2.55
2023-06-16T15:03:46.995Z,3.00
2023-06-16T15:06:16.611Z,2.70
2023-06-16T15:08:43.766Z,2.78
2023-06-16T15:11:10.617Z,2.58
2023-06-16T15:13:37.295Z,2.83
2023-06-16T15:16:04.146Z,2.72
2023-06-16T15:18:31.285Z,2.72
2023-06-16T15:20:57.966Z,2.50
2023-06-16T15:23:24.629Z,2.70
2023-06-16T15:25:52.550Z,2.38
2023-06-16T15:28:19.224Z,2.35
2023-06-16T15:30:47.088Z,2.30
2023-06-16T15:33:14.121Z,2.45
2023-06-16T15:35:41.107Z,2.20
2023-06-16T15:38:10.713Z,2.42
2023-06-16T15:40:38.358Z,2.65
2023-06-16T15:43:10.811Z,2.47
2023-06-16T15:45:38.154Z,2.67
2023-06-16T15:48:06.138Z,2.40
2023-06-16T15:50:32.809Z,2.53
2023-06-16T15:52:59.891Z,2.58
2023-06-16T15:55:26.722Z,3.00
2023-06-16T15:57:53.381Z,2.75
2023-06-16T16:00:20.256Z,2.67
2023-06-16T16:02:47.544Z,2.72
2023-06-16T16:05:16.048Z,3.17
2023-06-16T16:07:43.418Z,2.92
2023-06-16T16:10:10.837Z,3.17
2023-06-16T16:12:39.033Z,3.25
2023-06-16T16:15:08.063Z,3.30
2023-06-16T16:17:37.877Z,2.90
2023-06-16T16:20:05.487Z,3.55
2023-06-16T16:22:32.520Z,2.95
2023-06-16T16:24:59.308Z,2.88
2023-06-16T16:27:29.098Z,3.33
2023-06-16T16:29:55.940Z,3.28
2023-06-16T16:32:26.501Z,3.40
2023-06-16T16:34:53.990Z,3.40
2023-06-16T16:37:20.754Z,3.55
2023-06-16T16:39:48.354Z,3.25
2023-06-16T16:42:15.113Z,3.08
2023-06-16T16:44:43.825Z,2.85
2023-06-16T16:47:10.705Z,3.28
2023-06-16T16:49:37.391Z,3.10
2023-06-16T16:52:04.327Z,3.42
2023-06-16T16:54:31.203Z,3.63
2023-06-16T16:56:57.970Z,3.70
2023-06-16T16:59:24.736Z,3.28
2023-06-16T17:01:51.758Z,3.42
2023-06-16T17:04:22.283Z,3.40
2023-06-16T17:06:49.747Z,3.75
2023-06-16T17:09:16.915Z,3.67
2023-06-16T17:11:43.782Z,3.40
2023-06-16T17:14:10.505Z,3.50
2023-06-16T17:16:37.465Z,3.90
2023-06-16T17:19:04.687Z,3.65
2023-06-16T17:21:32.244Z,3.80
2023-06-16T17:23:58.946Z,3.53
2023-06-16T17:26:27.424Z,3.72
2023-06-16T17:28:54.126Z,3.72
2023-06-16T17:31:21.283Z,4.13
2023-06-16T17:33:48.061Z,4.05
2023-06-16T17:36:16.246Z,3.92
2023-06-16T17:38:43.027Z,4.00
2023-06-16T17:41:09.743Z,4.07
2023-06-16T17:43:36.411Z,3.97
2023-06-16T17:46:03.274Z,3.60
2023-06-16T17:48:29.952Z,3.55
2023-06-16T17:50:56.753Z,4.00
2023-06-16T17:53:23.777Z,3.78
2023-06-16T17:55:51.264Z,4.32
2023-06-16T17:58:18.028Z,4.10
2023-06-16T18:00:45.102Z,3.65
2023-06-16T18:03:11.945Z,3.90
2023-06-16T18:05:38.854Z,3.83
2023-06-16T18:08:06.217Z,4.53
2023-06-16T18:10:32.908Z,4.28
2023-06-16T18:12:59.555Z,3.80
2023-06-16T18:15:26.527Z,3.50
2023-06-16T18:17:53.216Z,3.88
2023-06-16T18:20:20.201Z,4.00
2023-06-16T18:22:47.491Z,3.72
2023-06-16T18:25:14.144Z,4.00
2023-06-16T18:27:40.789Z,3.83
2023-06-16T18:30:08.163Z,3.20
2023-06-16T18:32:38.071Z,3.40
2023-06-16T18:35:06.556Z,3.70
2023-06-16T18:37:42.135Z,3.55
2023-06-16T18:40:10.440Z,3.53
2023-06-16T18:42:37.361Z,3.90
2023-06-16T18:45:07.613Z,4.40
2023-06-16T18:47:35.718Z,3.80
2023-06-16T18:50:02.978Z,3.50
2023-06-16T18:52:29.955Z,3.72
2023-06-16T18:54:58.684Z,3.75
2023-06-16T18:57:25.580Z,3.90
2023-06-16T18:59:52.377Z,4.07
2023-06-16T19:02:19.081Z,3.97
2023-06-16T19:04:49.055Z,4.00
2023-06-16T19:07:16.480Z,3.78
2023-06-16T19:09:43.171Z,4.18
2023-06-16T19:12:12.762Z,4.30
2023-06-16T19:14:40.739Z,4.43
2023-06-16T19:17:07.875Z,4.30
2023-06-16T19:19:36.147Z,5.00
2023-06-16T19:22:03.301Z,4.55
2023-06-16T19:24:30.084Z,4.47
2023-06-16T19:26:56.877Z,4.82
2023-06-16T19:29:23.859Z,4.53
2023-06-16T19:31:51.422Z,3.85
2023-06-16T19:34:18.172Z,4.15
2023-06-16T19:36:45.224Z,4.25
2023-06-16T19:39:12.119Z,4.57
2023-06-16T19:41:39.790Z,4.57
2023-06-16T19:44:06.924Z,4.22
2023-06-16T19:46:33.720Z,4.13
2023-06-16T19:49:00.630Z,4.30
2023-06-16T19:51:27.497Z,4.50
2023-06-16T19:53:54.156Z,4.30
2023-06-16T19:56:22.135Z,4.38
2023-06-16T19:58:49.139Z,4.70
2023-06-16T20:01:15.969Z,4.28
2023-06-16T20:03:42.717Z,4.80
2023-06-16T20:06:09.579Z,4.90
2023-06-16T20:08:36.398Z,5.07
2023-06-16T20:11:03.267Z,4.72
2023-06-16T20:13:30.339Z,4.70
2023-06-16T20:15:57.082Z,4.28
2023-06-16T20:18:23.800Z,5.03
2023-06-16T20:20:51.813Z,4.82
2023-06-16T20:23:18.872Z,4.88
2023-06-16T20:25:48.507Z,4.90
2023-06-16T20:28:15.376Z,4.60
2023-06-16T20:30:42.117Z,4.78
2023-06-16T20:33:10.385Z,5.00
2023-06-16T20:35:37.366Z,4.97
2023-06-16T20:38:04.815Z,4.88
2023-06-16T20:40:31.870Z,5.13
2023-06-16T20:42:59.076Z,5.13
2023-06-16T20:45:26.263Z,5.28
2023-06-16T20:47:54.574Z,4.47
2023-06-16T20:50:24.077Z,5.03
2023-06-16T20:52:51.584Z,5.70
2023-06-16T20:55:19.331Z,5.28
2023-06-16T20:57:47.901Z,5.07
2023-06-16T21:00:15.134Z,5.13
2023-06-16T21:02:41.996Z,5.78
2023-06-16T21:05:13.185Z,5.97
2023-06-16T21:07:46.614Z,5.53
2023-06-16T21:10:14.807Z,5.43
2023-06-16T21:12:42.775Z,4.90
2023-06-16T21:15:10.730Z,5.82
2023-06-16T21:17:39.002Z,5.10
2023-06-16T21:20:09.228Z,5.00
2023-06-16T21:22:37.502Z,5.40
2023-06-16T21:25:05.267Z,5.28
2023-06-16T21:27:32.869Z,5.60
2023-06-16T21:30:00.271Z,6.40
2023-06-16T21:32:29.811Z,6.47
2023-06-16T21:34:57.440Z,6.20
2023-06-16T21:37:25.799Z,6.40
2023-06-16T21:40:11.978Z,5.45
2023-06-16T21:42:41.387Z,5.80
2023-06-16T21:45:10.200Z,6.05
2023-06-16T21:47:38.464Z,5.90
2023-06-16T21:50:06.669Z,6.75
2023-06-16T21:52:34.110Z,6.20
2023-06-16T21:55:06.763Z,6.75
2023-06-16T21:57:36.053Z,7.15
2023-06-16T22:00:04.838Z,7.43
2023-06-16T22:02:31.673Z,6.68
2023-06-16T22:04:58.595Z,6.68
2023-06-16T22:07:25.981Z,6.55
2023-06-16T22:09:53.390Z,7.28
2023-06-16T22:12:20.292Z,6.75
2023-06-16T22:14:47.359Z,6.57
2023-06-16T22:17:15.090Z,6.82
2023-06-16T22:19:43.152Z,6.50
2023-06-16T22:22:11.139Z,6.95
2023-06-16T22:24:40.179Z,6.57
2023-06-16T22:27:20.727Z,6.70
2023-06-16T22:29:49.539Z,6.90
2023-06-16T22:32:16.550Z,6.95
2023-06-16T22:34:43.179Z,7.20
2023-06-16T22:37:12.248Z,6.72
2023-06-16T22:39:40.782Z,7.80
2023-06-16T22:42:07.605Z,7.18
2023-06-16T22:44:34.340Z,6.75
2023-06-16T22:47:02.607Z,6.53
2023-06-16T22:49:29.938Z,6.88
2023-06-16T22:52:00.211Z,7.35
2023-06-16T22:54:28.040Z,7.22
2023-06-16T22:56:58.293Z,6.38
2023-06-16T22:59:25.652Z,6.50
2023-06-16T23:01:52.676Z,6.15
2023-06-16T23:04:19.748Z,7.35
2023-06-16T23:06:46.717Z,7.25
2023-06-16T23:09:13.707Z,7.03
2023-06-16T23:11:40.871Z,7.35
2023-06-16T23:14:07.748Z,7.43
2023-06-16T23:16:36.911Z,6.75
2023-06-16T23:19:03.716Z,6.85
2023-06-16T23:21:32.201Z,7.30
2023-06-16T23:23:59.022Z,7.68
2023-06-16T23:26:26.582Z,7.63
2023-06-16T23:28:53.424Z,7.60
2023-06-16T23:31:20.449Z,7.90
2023-06-16T23:33:50.020Z,8.27
2023-06-16T23:36:18.206Z,8.45
2023-06-16T23:38:49.915Z,8.00
2023-06-16T23:41:16.898Z,8.30
2023-06-16T23:43:43.675Z,8.95
2023-06-16T23:46:11.944Z,8.80
2023-06-16T23:48:38.747Z,9.43
2023-06-16T23:51:05.596Z,9.07
2023-06-16T23:53:32.699Z,9.52
2023-06-16T23:56:00.053Z,9.18
2023-06-16T23:58:28.917Z,9.88
